Time;durP1;ratioP1;P1;durP2;ratioP2;P2;SDS_P1;SDS_P2;PMS_P1;PMS_P2;Temp;Humidity;BMP_temperature;BMP_pressure;BME280_temperature;BME280_humidity;BME280_pressure;Samples;Min_cycle;Max_cycle;Signal;HPM_P1;HPM_P2
2021/06/09 07:32:34;;;;;;;;;;;18.10;99.90;;;;;;6196383;22;19934;-80
2021/06/09 07:35:02;;;;;;;;;;;18.10;99.90;;;;;;6168067;23;22428;-80
2021/06/09 07:37:30;;;;;;;;;;;18.00;99.90;;;;;;6170291;23;19924;-80
2021/06/09 07:39:58;;;;;;;;;;;18.10;99.90;;;;;;6207619;23;19931;-81
2021/06/09 07:42:27;;;;;;;;;;;18.10;99.90;;;;;;6168769;23;20289;-80
2021/06/09 07:44:57;;;;;;;;;;;18.10;99.90;;;;;;6169245;23;19950;-80
2021/06/09 07:47:26;;;;;;;;;;;18.20;99.90;;;;;;6208475;23;19927;-80
2021/06/09 07:49:54;;;;;;;;;;;18.30;99.90;;;;;;6170161;23;19973;-81
2021/06/09 07:52:22;;;;;;;;;;;18.40;99.90;;;;;;6209360;22;20425;-80
2021/06/09 07:54:50;;;;;;;;;;;18.50;99.90;;;;;;6207529;23;19920;-81
2021/06/09 07:57:17;;;;;;;;;;;18.60;99.90;;;;;;6168051;23;19924;-80
2021/06/09 07:59:44;;;;;;;;;;;18.60;99.90;;;;;;6207118;23;19920;-81
2021/06/09 08:02:12;;;;;;;;;;;18.70;99.90;;;;;;6168385;22;19920;-80
2021/06/09 08:04:39;;;;;;;;;;;18.70;99.90;;;;;;6169415;23;19919;-80
2021/06/09 08:07:06;;;;;;;;;;;18.80;99.90;;;;;;6208266;23;19920;-80
2021/06/09 08:09:33;;;;;;;;;;;18.80;99.90;;;;;;6171922;23;19955;-81
2021/06/09 08:12:03;;;;;;;;;;;18.90;99.90;;;;;;6210912;22;19920;-81
2021/06/09 08:14:30;;;;;;;;;;;19.10;99.90;;;;;;6210316;22;19927;-82
2021/06/09 08:16:57;;;;;;;;;;;19.30;99.90;;;;;;6210984;23;19981;-82
2021/06/09 08:19:24;;;;;;;;;;;19.40;99.90;;;;;;6210330;23;19935;-81
2021/06/09 08:21:50;;;;;;;;;;;19.40;99.90;;;;;;6209514;23;19972;-82
2021/06/09 08:24:17;;;;;;;;;;;19.40;99.90;;;;;;6210412;23;19920;-82
2021/06/09 08:26:45;;;;;;;;;;;19.40;99.90;;;;;;6171018;23;19920;-82
2021/06/09 08:29:12;;;;;;;;;;;19.30;99.90;;;;;;6171645;23;19920;-82
2021/06/09 08:31:39;;;;;;;;;;;19.20;99.90;;;;;;6164226;22;19920;-81
2021/06/09 08:34:07;;;;;;;;;;;19.20;99.90;;;;;;6180356;23;19999;-81
2021/06/09 08:36:35;;;;;;;;;;;19.30;99.90;;;;;;6180866;23;20389;-81
2021/06/09 08:39:02;;;;;;;;;;;19.40;99.90;;;;;;6154908;23;19959;-82
2021/06/09 08:41:31;;;;;;;;;;;19.60;99.90;;;;;;6210201;22;20247;-83
2021/06/09 08:43:58;;;;;;;;;;;19.80;99.90;;;;;;6172315;23;19928;-81
2021/06/09 08:46:25;;;;;;;;;;;19.90;99.90;;;;;;6171200;23;19920;-82
2021/06/09 08:48:54;;;;;;;;;;;20.00;99.90;;;;;;6174557;22;19920;-82
2021/06/09 08:51:22;;;;;;;;;;;20.00;99.90;;;;;;6177484;23;19927;-83
2021/06/09 08:53:50;;;;;;;;;;;20.00;99.90;;;;;;6180811;22;20244;-82
2021/06/09 08:56:18;;;;;;;;;;;20.30;99.90;;;;;;6178769;23;19974;-82
2021/06/09 08:58:45;;;;;;;;;;;20.40;99.90;;;;;;6178809;23;19966;-81
2021/06/09 09:01:13;;;;;;;;;;;20.40;99.90;;;;;;6180478;23;19920;-81
2021/06/09 09:03:44;;;;;;;;;;;20.40;99.90;;;;;;6181032;22;19921;-82
2021/06/09 09:06:12;;;;;;;;;;;20.60;99.90;;;;;;6180244;23;19989;-82
2021/06/09 09:08:38;;;;;;;;;;;20.80;99.90;;;;;;6179090;23;20199;-81
2021/06/09 09:11:05;;;;;;;;;;;20.90;99.90;;;;;;6178653;23;19924;-82
2021/06/09 09:13:32;;;;;;;;;;;21.00;99.90;;;;;;6180633;23;19950;-82
2021/06/09 09:15:59;;;;;;;;;;;21.10;99.90;;;;;;6179470;23;19927;-82
2021/06/09 09:18:36;;;;;;;;;;;21.20;99.90;;;;;;6180473;22;19927;-81
2021/06/09 09:21:03;;;;;;;;;;;21.30;99.90;;;;;;6179092;22;19924;-82
2021/06/09 09:23:30;;;;;;;;;;;21.40;99.90;;;;;;6184362;23;19920;-82
2021/06/09 09:25:58;;;;;;;;;;;21.60;99.90;;;;;;6184548;23;20354;-83
2021/06/09 09:28:25;;;;;;;;;;;21.80;99.90;;;;;;6154750;23;19920;-82
2021/06/09 09:31:04;;;;;;;;;;;21.70;99.90;;;;;;6178274;23;19920;-82
2021/06/09 09:33:32;;;;;;;;;;;21.80;99.90;;;;;;6178826;23;19920;-81
2021/06/09 09:35:59;;;;;;;;;;;21.70;99.90;;;;;;6180758;23;19948;-82
2021/06/09 09:38:31;;;;;;;;;;;21.80;99.90;;;;;;6180421;22;19924;-82
2021/06/09 09:41:04;;;;;;;;;;;21.80;99.90;;;;;;6179233;23;19924;-82
2021/06/09 09:43:47;;;;;;;;;;;21.90;99.90;;;;;;6180520;22;19950;-81
2021/06/09 09:46:24;;;;;;;;;;;21.90;99.90;;;;;;6178603;23;19974;-83
2021/06/09 09:49:04;;;;;;;;;;;22.00;99.90;;;;;;6179249;23;19920;-83
2021/06/09 09:51:33;;;;;;;;;;;22.00;99.90;;;;;;6178635;23;19920;-81
2021/06/09 09:54:01;;;;;;;;;;;22.20;99.90;;;;;;6180388;23;19920;-82
2021/06/09 09:56:29;;;;;;;;;;;22.20;99.90;;;;;;6178410;23;19950;-82
2021/06/09 09:58:59;;;;;;;;;;;22.10;99.90;;;;;;6177885;23;19921;-83
2021/06/09 10:01:27;;;;;;;;;;;22.00;99.90;;;;;;6178733;23;19920;-82
2021/06/09 10:03:55;;;;;;;;;;;21.80;99.00;;;;;;6177886;23;19927;-82
2021/06/09 10:06:57;;;;;;;;;;;21.80;97.70;;;;;;6180198;23;19921;-83
2021/06/09 10:09:28;;;;;;;;;;;21.80;96.80;;;;;;6088856;23;19929;-81
2021/06/09 10:11:58;;;;;;;;;;;21.90;98.80;;;;;;6089294;23;19925;-82
2021/06/09 10:14:25;;;;;;;;;;;21.90;99.90;;;;;;6088304;23;20367;-82
2021/06/09 10:16:56;;;;;;;;;;;22.10;99.90;;;;;;6089223;23;20010;-82
2021/06/09 10:19:26;;;;;;;;;;;22.20;99.90;;;;;;6088822;23;19944;-83
2021/06/09 10:22:00;;;;;;;;;;;22.10;99.90;;;;;;6089134;23;19921;-83
2021/06/09 10:24:27;;;;;;;;;;;22.10;99.90;;;;;;6088960;23;19921;-85
2021/06/09 10:27:02;;;;;;;;;;;22.10;99.90;;;;;;6087885;23;19921;-85
2021/06/09 10:29:31;;;;;;;;;;;22.30;99.90;;;;;;6064921;23;20308;-88
2021/06/09 10:32:02;;;;;;;;;;;22.40;99.90;;;;;;6087435;23;19921;-85
2021/06/09 10:34:30;;;;;;;;;;;22.40;99.90;;;;;;6063549;23;19921;-82
2021/06/09 10:36:58;;;;;;;;;;;22.40;99.90;;;;;;6065266;23;19925;-84
2021/06/09 10:39:27;;;;;;;;;;;22.40;99.90;;;;;;6064585;23;20004;-83
2021/06/09 10:41:55;;;;;;;;;;;22.50;99.90;;;;;;6065254;23;19921;-83
2021/06/09 10:44:24;;;;;;;;;;;22.60;99.90;;;;;;6169053;23;19921;-83
2021/06/09 10:46:53;;;;;;;;;;;22.80;99.90;;;;;;6158779;23;19920;-83
2021/06/09 10:49:21;;;;;;;;;;;22.80;99.90;;;;;;6179685;23;19920;-84
2021/06/09 10:51:49;;;;;;;;;;;22.90;99.90;;;;;;6178652;23;19927;-83
2021/06/09 10:54:16;;;;;;;;;;;23.00;99.90;;;;;;6178290;23;20233;-84
2021/06/09 10:56:45;;;;;;;;;;;23.10;99.90;;;;;;6179669;23;19924;-84
2021/06/09 10:59:15;;;;;;;;;;;23.10;99.90;;;;;;6177584;22;19973;-83
2021/06/09 11:01:43;;;;;;;;;;;23.20;99.90;;;;;;6177977;23;20392;-83
2021/06/09 11:04:11;;;;;;;;;;;23.20;99.90;;;;;;6177752;23;20339;-83
2021/06/09 11:06:43;;;;;;;;;;;23.30;99.90;;;;;;6178939;23;19920;-83
2021/06/09 11:09:12;;;;;;;;;;;23.30;99.90;;;;;;6180471;23;20252;-84
2021/06/09 11:11:38;;;;;;;;;;;23.30;99.90;;;;;;6181396;23;20339;-83
2021/06/09 11:14:24;;;;;;;;;;;23.30;99.90;;;;;;6179751;23;19920;-83
2021/06/09 11:16:53;;;;;;;;;;;23.20;99.90;;;;;;6179842;23;20346;-83
2021/06/09 11:19:41;;;;;;;;;;;23.20;99.90;;;;;;6181198;23;19921;-83
2021/06/09 11:22:18;;;;;;;;;;;23.10;99.90;;;;;;6180795;23;19925;-83
2021/06/09 11:25:03;;;;;;;;;;;22.90;99.90;;;;;;6179918;23;19920;-83
2021/06/09 11:27:30;;;;;;;;;;;22.80;99.90;;;;;;6160362;23;19973;-82
2021/06/09 11:29:58;;;;;;;;;;;23.10;99.90;;;;;;6172394;23;20277;-83
2021/06/09 11:32:25;;;;;;;;;;;23.20;99.90;;;;;;6165942;22;20309;-83
2021/06/09 11:34:59;;;;;;;;;;;23.30;99.90;;;;;;6181406;23;19920;-83
2021/06/09 11:37:26;;;;;;;;;;;23.50;99.90;;;;;;6179628;23;19920;-84
2021/06/09 11:39:59;;;;;;;;;;;23.50;99.90;;;;;;6167081;22;20301;-84
2021/06/09 11:42:26;;;;;;;;;;;23.30;99.90;;;;;;6167112;23;19966;-83
2021/06/09 11:44:53;;;;;;;;;;;23.20;99.90;;;;;;6181325;23;19927;-85
2021/06/09 11:47:22;;;;;;;;;;;23.10;99.90;;;;;;6180680;23;20297;-83
2021/06/09 11:49:50;;;;;;;;;;;23.10;99.90;;;;;;6181220;23;19920;-83
2021/06/09 11:52:17;;;;;;;;;;;23.20;99.90;;;;;;6164380;23;19966;-85
2021/06/09 11:54:45;;;;;;;;;;;23.40;99.90;;;;;;6174494;23;19966;-83
2021/06/09 11:57:18;;;;;;;;;;;23.50;99.90;;;;;;6175914;23;19921;-82
2021/06/09 12:00:03;;;;;;;;;;;23.50;99.90;;;;;;6166026;23;19927;-83
2021/06/09 12:02:29;;;;;;;;;;;23.30;99.90;;;;;;6159511;22;20263;-84
2021/06/09 12:04:56;;;;;;;;;;;23.30;99.90;;;;;;6173102;23;19924;-83
2021/06/09 12:07:23;;;;;;;;;;;23.50;99.90;;;;;;6171122;23;20301;-83
2021/06/09 12:09:51;;;;;;;;;;;23.60;99.90;;;;;;6163807;23;19924;-85
2021/06/09 12:12:25;;;;;;;;;;;23.70;99.90;;;;;;6177729;23;19970;-82
2021/06/09 12:14:53;;;;;;;;;;;23.60;99.90;;;;;;6163982;23;19993;-84
2021/06/09 12:17:24;;;;;;;;;;;23.80;99.90;;;;;;6164686;23;19925;-84
2021/06/09 12:19:57;;;;;;;;;;;23.70;99.90;;;;;;6178749;22;20244;-84
2021/06/09 12:22:26;;;;;;;;;;;23.60;99.90;;;;;;6161410;23;20039;-83
2021/06/09 12:24:55;;;;;;;;;;;23.60;99.90;;;;;;6172372;23;19920;-84
2021/06/09 12:27:22;;;;;;;;;;;23.60;99.90;;;;;;6179154;22;19954;-83
2021/06/09 12:29:49;;;;;;;;;;;23.60;99.90;;;;;;6165096;23;20340;-83
2021/06/09 12:32:19;;;;;;;;;;;23.50;99.90;;;;;;6161561;22;20334;-83
2021/06/09 12:34:56;;;;;;;;;;;23.40;99.90;;;;;;6172711;23;19925;-83
2021/06/09 12:37:24;;;;;;;;;;;23.60;99.90;;;;;;6177555;23;19928;-83
2021/06/09 12:39:55;;;;;;;;;;;23.60;99.90;;;;;;6177334;23;19974;-83
2021/06/09 12:42:22;;;;;;;;;;;23.50;99.90;;;;;;6163061;23;19932;-82
2021/06/09 12:44:49;;;;;;;;;;;23.60;99.90;;;;;;6164490;23;19921;-82
2021/06/09 12:47:26;;;;;;;;;;;23.60;99.90;;;;;;6164358;23;19927;-84
2021/06/09 12:50:09;;;;;;;;;;;23.60;99.90;;;;;;6165297;23;19985;-83
2021/06/09 12:52:36;;;;;;;;;;;23.50;99.90;;;;;;6163386;23;20278;-84
2021/06/09 12:55:07;;;;;;;;;;;23.60;99.90;;;;;;6163649;23;19921;-83
2021/06/09 12:57:35;;;;;;;;;;;23.60;99.90;;;;;;6145298;23;19924;-85
2021/06/09 13:00:22;;;;;;;;;;;23.50;99.90;;;;;;6146890;23;19943;-82
2021/06/09 13:02:50;;;;;;;;;;;23.20;99.90;;;;;;6144758;23;20348;-82
2021/06/09 13:05:17;;;;;;;;;;;23.20;99.90;;;;;;6146188;23;19921;-82
2021/06/09 13:07:45;;;;;;;;;;;23.30;99.90;;;;;;6147664;23;20327;-82
2021/06/09 13:10:13;;;;;;;;;;;23.20;99.90;;;;;;6145367;23;19927;-82
2021/06/09 13:12:40;;;;;;;;;;;23.20;99.90;;;;;;6149638;23;20347;-82
2021/06/09 13:15:08;;;;;;;;;;;23.10;99.90;;;;;;6145442;23;19925;-83
2021/06/09 13:17:45;;;;;;;;;;;23.20;99.90;;;;;;6147855;23;20583;-82
2021/06/09 13:20:13;;;;;;;;;;;23.20;99.90;;;;;;6148618;23;20356;-82
2021/06/09 13:22:44;;;;;;;;;;;23.40;99.90;;;;;;6149031;23;20342;-82
2021/06/09 13:25:11;;;;;;;;;;;23.20;99.90;;;;;;6149043;23;19973;-83
2021/06/09 13:27:38;;;;;;;;;;;23.20;99.90;;;;;;6147173;23;20291;-81
2021/06/09 13:30:08;;;;;;;;;;;23.10;99.90;;;;;;6147458;23;19921;-81
2021/06/09 13:32:36;;;;;;;;;;;23.20;99.90;;;;;;6147392;22;19950;-83
2021/06/09 13:35:29;;;;;;;;;;;23.30;99.90;;;;;;6147637;23;20336;-82
2021/06/09 13:37:57;;;;;;;;;;;23.10;99.90;;;;;;6160056;23;20340;-82
2021/06/09 13:40:28;;;;;;;;;;;23.10;99.90;;;;;;6164333;23;19987;-82
2021/06/09 13:42:58;;;;;;;;;;;23.30;99.90;;;;;;6165615;23;19928;-83
2021/06/09 13:45:27;;;;;;;;;;;23.60;99.90;;;;;;6178677;23;19920;-82
2021/06/09 13:48:05;;;;;;;;;;;23.80;99.90;;;;;;6164634;23;20319;-83
2021/06/09 13:50:32;;;;;;;;;;;23.90;99.90;;;;;;6154355;23;19920;-82
2021/06/09 13:53:07;;;;;;;;;;;23.70;99.90;;;;;;6163198;23;19920;-81
2021/06/09 13:55:38;;;;;;;;;;;23.50;99.90;;;;;;6154314;23;20362;-81
2021/06/09 13:58:05;;;;;;;;;;;23.50;99.90;;;;;;6178925;23;19967;-81
2021/06/09 14:00:34;;;;;;;;;;;23.60;99.90;;;;;;6180037;23;19999;-81
2021/06/09 14:03:13;;;;;;;;;;;23.40;99.90;;;;;;6179202;22;19939;-81
2021/06/09 14:05:40;;;;;;;;;;;23.30;99.90;;;;;;6165415;23;19920;-81
2021/06/09 14:08:07;;;;;;;;;;;23.30;99.90;;;;;;6164809;23;20419;-82
2021/06/09 14:10:35;;;;;;;;;;;23.20;99.90;;;;;;6165075;22;19916;-82
2021/06/09 14:13:02;;;;;;;;;;;23.20;99.90;;;;;;6165905;23;20386;-81
2021/06/09 14:15:37;;;;;;;;;;;23.10;99.90;;;;;;6179191;22;19920;-80
2021/06/09 14:18:08;;;;;;;;;;;23.10;99.90;;;;;;6166146;23;19920;-82
2021/06/09 14:20:37;;;;;;;;;;;23.10;99.90;;;;;;6155675;23;19920;-81
2021/06/09 14:23:04;;;;;;;;;;;23.00;99.90;;;;;;6165437;23;20420;-82
2021/06/09 14:25:32;;;;;;;;;;;23.00;99.90;;;;;;6179910;22;20255;-80
2021/06/09 14:28:01;;;;;;;;;;;23.00;99.90;;;;;;6179704;23;19948;-83
2021/06/09 14:30:47;;;;;;;;;;;23.00;99.90;;;;;;6166739;23;20327;-81
2021/06/09 14:33:23;;;;;;;;;;;23.00;99.90;;;;;;6169169;23;20424;-81
2021/06/09 14:36:22;;;;;;;;;;;23.10;99.90;;;;;;6208072;23;20359;-81
2021/06/09 14:38:56;;;;;;;;;;;23.10;99.90;;;;;;6177717;23;19924;-81
2021/06/09 14:41:34;;;;;;;;;;;22.80;99.90;;;;;;6179416;23;19924;-81
2021/06/09 14:44:03;;;;;;;;;;;22.70;99.90;;;;;;6179824;23;19921;-81
2021/06/09 14:46:43;;;;;;;;;;;22.50;99.90;;;;;;6178483;23;19920;-81
2021/06/09 14:49:30;;;;;;;;;;;22.40;99.90;;;;;;6176374;23;19920;-81
2021/06/09 14:51:58;;;;;;;;;;;22.50;99.90;;;;;;6176476;23;19924;-81
2021/06/09 14:54:25;;;;;;;;;;;22.60;99.90;;;;;;6178112;23;19954;-86
2021/06/09 14:56:52;;;;;;;;;;;22.70;99.90;;;;;;6178718;23;19924;-81
2021/06/09 14:59:18;;;;;;;;;;;22.80;99.90;;;;;;6175902;23;19942;-81
2021/06/09 15:01:45;;;;;;;;;;;22.90;99.90;;;;;;6178949;23;19925;-81
2021/06/09 15:04:12;;;;;;;;;;;23.10;99.90;;;;;;6179061;23;19924;-82
2021/06/09 15:06:39;;;;;;;;;;;23.20;99.90;;;;;;6178179;23;19920;-81
2021/06/09 15:09:06;;;;;;;;;;;23.40;99.90;;;;;;6177419;23;19927;-81
2021/06/09 15:11:34;;;;;;;;;;;23.60;99.90;;;;;;6178323;23;19928;-82
2021/06/09 15:14:03;;;;;;;;;;;23.60;99.90;;;;;;6176403;23;19999;-82
2021/06/09 15:16:30;;;;;;;;;;;23.30;99.90;;;;;;6176357;23;19928;-82
2021/06/09 15:18:57;;;;;;;;;;;23.10;99.90;;;;;;6179894;23;19920;-82
2021/06/09 15:21:24;;;;;;;;;;;23.10;99.90;;;;;;6176783;23;22405;-81
2021/06/09 15:23:50;;;;;;;;;;;23.00;99.90;;;;;;6179137;23;19924;-82
2021/06/09 15:26:17;;;;;;;;;;;23.10;99.90;;;;;;6177483;23;19920;-82
2021/06/09 15:28:44;;;;;;;;;;;23.30;99.90;;;;;;6177080;23;19966;-83
2021/06/09 15:31:11;;;;;;;;;;;23.40;99.90;;;;;;6175858;23;19954;-85
2021/06/09 15:33:38;;;;;;;;;;;23.40;99.90;;;;;;6177783;23;20505;-83
2021/06/09 15:36:05;;;;;;;;;;;23.40;99.90;;;;;;6177600;23;19995;-83
2021/06/09 15:38:32;;;;;;;;;;;23.40;99.90;;;;;;6178106;23;19982;-81
2021/06/09 15:40:59;;;;;;;;;;;23.40;99.90;;;;;;6178086;23;19920;-83
2021/06/09 15:43:27;;;;;;;;;;;23.40;99.90;;;;;;6175279;23;19981;-82
2021/06/09 15:45:54;;;;;;;;;;;23.10;99.90;;;;;;6174293;23;19920;-80
2021/06/09 15:48:21;;;;;;;;;;;22.90;99.90;;;;;;6174811;23;19931;-82
2021/06/09 15:50:48;;;;;;;;;;;22.90;99.90;;;;;;6175621;23;19920;-82
2021/06/09 15:53:15;;;;;;;;;;;22.80;99.90;;;;;;6174481;23;19932;-82
2021/06/09 15:55:41;;;;;;;;;;;22.80;99.90;;;;;;6178443;23;19920;-81
2021/06/09 15:58:08;;;;;;;;;;;22.70;99.90;;;;;;6178314;23;19928;-82
2021/06/09 16:00:35;;;;;;;;;;;22.60;99.90;;;;;;6177547;23;19973;-83
2021/06/09 16:03:07;;;;;;;;;;;22.60;99.90;;;;;;6176749;23;20339;-82
2021/06/09 16:05:35;;;;;;;;;;;22.70;99.90;;;;;;6178318;23;19921;-81
2021/06/09 16:08:02;;;;;;;;;;;22.80;99.90;;;;;;6180604;23;20405;-81
2021/06/09 16:10:28;;;;;;;;;;;22.90;99.90;;;;;;6180140;23;19920;-81
2021/06/09 16:12:56;;;;;;;;;;;22.90;99.90;;;;;;6180030;23;19950;-82
2021/06/09 16:15:22;;;;;;;;;;;22.80;99.90;;;;;;6178802;23;19997;-82
2021/06/09 16:17:49;;;;;;;;;;;22.80;99.90;;;;;;6180209;23;20238;-83
2021/06/09 16:20:17;;;;;;;;;;;22.60;99.90;;;;;;6178107;23;20007;-81
2021/06/09 16:22:44;;;;;;;;;;;22.50;99.90;;;;;;6180258;23;19920;-82
2021/06/09 16:25:12;;;;;;;;;;;22.40;99.90;;;;;;6179612;23;19920;-83
2021/06/09 16:27:39;;;;;;;;;;;22.40;99.90;;;;;;6178047;23;19920;-81
2021/06/09 16:30:07;;;;;;;;;;;22.40;99.90;;;;;;6179738;23;20331;-81
2021/06/09 16:32:35;;;;;;;;;;;22.20;99.90;;;;;;6178354;23;19920;-81
2021/06/09 16:35:06;;;;;;;;;;;22.20;99.90;;;;;;6179077;23;19920;-83
2021/06/09 16:37:33;;;;;;;;;;;22.10;99.90;;;;;;6154162;23;19966;-81
2021/06/09 16:40:00;;;;;;;;;;;22.10;99.90;;;;;;6179719;23;19969;-82
2021/06/09 16:42:27;;;;;;;;;;;21.90;99.90;;;;;;6178545;23;19965;-82
2021/06/09 16:44:54;;;;;;;;;;;21.80;99.90;;;;;;6179435;23;19944;-82
2021/06/09 16:47:21;;;;;;;;;;;21.80;99.90;;;;;;6178126;23;19928;-83
2021/06/09 16:49:48;;;;;;;;;;;21.90;99.90;;;;;;6180550;23;20281;-84
2021/06/09 16:52:15;;;;;;;;;;;22.10;99.90;;;;;;6179665;23;19931;-83
2021/06/09 16:54:56;;;;;;;;;;;22.10;99.90;;;;;;6180762;23;20335;-83
2021/06/09 17:00:09;;;;;;;;;;;21.80;99.90;;;;;;6179657;23;19969;-82
2021/06/09 17:02:35;;;;;;;;;;;21.80;99.90;;;;;;6178716;23;19986;-84
2021/06/09 17:05:03;;;;;;;;;;;21.80;99.90;;;;;;6178894;23;19974;-84
2021/06/09 17:07:30;;;;;;;;;;;21.80;99.90;;;;;;6179917;23;19966;-82
2021/06/09 17:09:56;;;;;;;;;;;21.80;99.90;;;;;;6180221;23;19920;-83
2021/06/09 17:12:23;;;;;;;;;;;21.70;99.90;;;;;;6179271;23;19924;-83
2021/06/09 17:14:50;;;;;;;;;;;21.60;99.90;;;;;;6180222;22;19925;-84
2021/06/09 17:17:17;;;;;;;;;;;21.70;99.90;;;;;;6178130;23;19951;-82
2021/06/09 17:19:43;;;;;;;;;;;21.60;99.90;;;;;;6178682;23;19921;-82
2021/06/09 17:22:10;;;;;;;;;;;21.60;99.90;;;;;;6178347;23;19970;-82
2021/06/09 17:24:37;;;;;;;;;;;21.60;99.90;;;;;;6178904;23;21007;-81
2021/06/09 17:27:03;;;;;;;;;;;21.50;99.90;;;;;;6179978;23;19924;-82
2021/06/09 17:29:32;;;;;;;;;;;21.50;99.90;;;;;;6179900;23;19961;-82
2021/06/09 17:31:59;;;;;;;;;;;21.50;99.90;;;;;;6179928;23;19920;-83
2021/06/09 17:34:26;;;;;;;;;;;21.50;99.90;;;;;;6179572;23;19995;-83
2021/06/09 17:36:53;;;;;;;;;;;21.50;99.90;;;;;;6180259;23;19969;-81
2021/06/09 17:39:20;;;;;;;;;;;21.50;99.90;;;;;;6178351;23;19921;-80
2021/06/09 17:41:46;;;;;;;;;;;21.50;99.90;;;;;;6177809;23;19920;-80
2021/06/09 17:44:13;;;;;;;;;;;21.50;99.90;;;;;;6179475;23;20011;-82
2021/06/09 17:46:40;;;;;;;;;;;21.50;99.90;;;;;;6178559;23;19920;-80
2021/06/09 17:49:07;;;;;;;;;;;21.40;99.90;;;;;;6178055;23;19925;-81
2021/06/09 17:51:36;;;;;;;;;;;21.40;99.90;;;;;;6179099;23;19921;-81
2021/06/09 17:54:03;;;;;;;;;;;21.50;99.90;;;;;;6180660;23;19981;-82
2021/06/09 17:56:30;;;;;;;;;;;21.40;99.90;;;;;;6160458;23;20301;-82
2021/06/09 17:59:00;;;;;;;;;;;21.30;99.90;;;;;;6172769;23;19924;-82
2021/06/09 18:03:58;;;;;;;;;;;21.20;99.90;;;;;;6210233;23;20236;-81
2021/06/09 18:06:27;;;;;;;;;;;21.20;99.90;;;;;;6171345;23;20432;-80
2021/06/09 18:08:55;;;;;;;;;;;21.30;99.90;;;;;;6171772;23;19973;-80
2021/06/09 18:11:23;;;;;;;;;;;21.30;99.90;;;;;;6168964;23;19928;-83
2021/06/09 18:13:50;;;;;;;;;;;21.40;99.90;;;;;;6169689;23;19995;-83
2021/06/09 18:16:18;;;;;;;;;;;21.40;99.90;;;;;;6207707;23;20263;-83
2021/06/09 18:18:45;;;;;;;;;;;21.40;99.90;;;;;;6169997;23;20270;-82
2021/06/09 18:21:12;;;;;;;;;;;21.30;99.90;;;;;;6169185;23;19920;-82
2021/06/09 18:23:39;;;;;;;;;;;21.20;99.90;;;;;;6170955;23;19920;-80
2021/06/09 18:26:05;;;;;;;;;;;21.20;99.90;;;;;;6170060;23;19920;-80
2021/06/09 18:28:32;;;;;;;;;;;21.10;99.90;;;;;;6170100;23;19920;-80
2021/06/09 18:30:59;;;;;;;;;;;21.00;99.90;;;;;;6170884;23;19965;-81
2021/06/09 18:33:26;;;;;;;;;;;20.90;99.90;;;;;;6208457;23;20208;-84
2021/06/09 18:35:53;;;;;;;;;;;20.70;99.90;;;;;;6170863;22;20232;-82
2021/06/09 18:38:19;;;;;;;;;;;20.40;99.90;;;;;;6169318;23;19974;-81
2021/06/09 18:40:47;;;;;;;;;;;20.20;99.90;;;;;;6207542;23;19924;-82
2021/06/09 18:43:14;;;;;;;;;;;20.00;99.90;;;;;;6205908;23;19961;-81
2021/06/09 18:45:41;;;;;;;;;;;19.80;99.90;;;;;;6166968;23;19965;-84
2021/06/09 18:48:08;;;;;;;;;;;19.60;99.90;;;;;;6165736;23;19961;-81
2021/06/09 18:50:36;;;;;;;;;;;19.40;99.90;;;;;;6167343;23;19924;-82
2021/06/09 18:53:03;;;;;;;;;;;19.40;99.90;;;;;;6167443;23;19973;-82
2021/06/09 18:55:32;;;;;;;;;;;19.30;99.90;;;;;;6167605;23;19916;-82
2021/06/09 18:57:59;;;;;;;;;;;19.20;99.90;;;;;;6165159;23;20236;-83
2021/06/09 19:00:33;;;;;;;;;;;19.10;99.90;;;;;;6165172;23;19927;-83
2021/06/09 19:03:02;;;;;;;;;;;18.90;99.90;;;;;;6165210;23;19965;-82
2021/06/09 19:05:29;;;;;;;;;;;18.80;99.90;;;;;;6164144;23;19920;-82
2021/06/09 19:07:56;;;;;;;;;;;18.80;99.90;;;;;;6201927;22;19928;-82
2021/06/09 19:10:24;;;;;;;;;;;18.70;99.90;;;;;;6163361;23;20012;-84
2021/06/09 19:12:52;;;;;;;;;;;18.80;99.90;;;;;;6164662;23;19924;-82
2021/06/09 19:15:21;;;;;;;;;;;18.70;99.90;;;;;;6163862;23;20231;-82
2021/06/09 19:17:49;;;;;;;;;;;18.70;99.90;;;;;;6166011;23;20351;-81
2021/06/09 19:20:17;;;;;;;;;;;18.70;99.90;;;;;;6165615;23;20263;-82
2021/06/09 19:22:45;;;;;;;;;;;18.70;99.90;;;;;;6165389;23;19931;-82
2021/06/09 19:25:12;;;;;;;;;;;18.70;99.90;;;;;;6165977;23;19944;-81
2021/06/09 19:27:39;;;;;;;;;;;18.60;99.90;;;;;;6165741;23;19920;-81
2021/06/09 19:30:07;;;;;;;;;;;18.50;99.90;;;;;;6166346;23;20564;-83
2021/06/09 19:32:34;;;;;;;;;;;18.50;99.90;;;;;;6160377;23;19920;-82
2021/06/09 19:35:04;;;;;;;;;;;18.40;99.90;;;;;;6163400;23;19952;-81
2021/06/09 19:37:31;;;;;;;;;;;18.40;99.90;;;;;;6163520;22;19920;-80
2021/06/09 19:39:59;;;;;;;;;;;18.30;99.90;;;;;;6177585;23;19943;-81
2021/06/09 19:42:26;;;;;;;;;;;18.20;99.90;;;;;;6158988;23;19921;-81
2021/06/09 19:44:53;;;;;;;;;;;18.20;99.90;;;;;;6169408;23;20604;-80
2021/06/09 19:47:19;;;;;;;;;;;18.20;99.90;;;;;;6163057;23;20380;-80
2021/06/09 19:49:46;;;;;;;;;;;18.10;99.90;;;;;;6163723;23;19924;-80
2021/06/09 19:52:13;;;;;;;;;;;18.10;99.90;;;;;;6162715;22;20263;-82
2021/06/09 19:54:40;;;;;;;;;;;18.10;99.90;;;;;;6163624;23;19920;-80
2021/06/09 19:57:07;;;;;;;;;;;18.10;99.90;;;;;;6162651;23;19999;-80
2021/06/09 19:59:34;;;;;;;;;;;18.10;99.90;;;;;;6177192;23;19924;-80
2021/06/09 20:02:01;;;;;;;;;;;18.00;99.90;;;;;;6177300;23;19924;-80
2021/06/09 20:04:28;;;;;;;;;;;18.00;99.90;;;;;;6176669;22;20585;-80
2021/06/09 20:06:55;;;;;;;;;;;18.00;99.90;;;;;;6163589;23;20240;-80
2021/06/09 20:09:22;;;;;;;;;;;17.90;99.90;;;;;;6163369;23;20386;-81
2021/06/09 20:11:49;;;;;;;;;;;17.80;99.90;;;;;;6177319;22;19981;-81
2021/06/09 20:14:15;;;;;;;;;;;17.80;99.90;;;;;;6161339;23;19924;-81
2021/06/09 20:16:42;;;;;;;;;;;17.70;99.90;;;;;;6176281;22;19927;-81
2021/06/09 20:19:09;;;;;;;;;;;17.60;99.90;;;;;;6174985;23;19924;-81
2021/06/09 20:21:36;;;;;;;;;;;17.50;99.90;;;;;;6174029;23;19928;-82
2021/06/09 20:24:11;;;;;;;;;;;17.50;99.90;;;;;;6175733;23;19931;-82
2021/06/09 20:29:23;;;;;;;;;;;17.40;99.90;;;;;;6175714;23;19977;-81
2021/06/09 20:31:50;;;;;;;;;;;17.40;99.90;;;;;;6162940;22;20011;-79
2021/06/09 20:34:16;;;;;;;;;;;17.40;99.90;;;;;;6163106;23;19925;-82
2021/06/09 20:36:43;;;;;;;;;;;17.40;99.90;;;;;;6163280;23;19970;-81
2021/06/09 20:39:10;;;;;;;;;;;17.30;99.90;;;;;;6162969;23;19920;-81
2021/06/09 20:41:37;;;;;;;;;;;17.30;99.90;;;;;;6163259;23;19927;-81
2021/06/09 20:44:04;;;;;;;;;;;17.30;99.90;;;;;;6161981;23;19920;-81
2021/06/09 20:46:30;;;;;;;;;;;17.30;99.90;;;;;;6162872;23;20433;-81
2021/06/09 20:48:57;;;;;;;;;;;17.20;99.90;;;;;;6162326;23;19928;-80
2021/06/09 20:51:26;;;;;;;;;;;17.20;99.90;;;;;;6162362;23;20302;-80
2021/06/09 20:53:53;;;;;;;;;;;17.20;99.90;;;;;;6163337;23;19924;-80
2021/06/09 20:56:20;;;;;;;;;;;17.20;99.90;;;;;;6162711;23;19920;-80
2021/06/09 20:58:47;;;;;;;;;;;17.20;99.90;;;;;;6163744;23;19970;-80
2021/06/09 21:01:14;;;;;;;;;;;17.20;99.90;;;;;;6161048;23;19977;-81
2021/06/09 21:03:41;;;;;;;;;;;17.20;99.90;;;;;;6161568;23;19921;-80
2021/06/09 21:06:08;;;;;;;;;;;17.10;99.90;;;;;;6162530;23;19928;-81
2021/06/09 21:08:35;;;;;;;;;;;17.10;99.90;;;;;;6162819;23;20347;-80
2021/06/09 21:11:02;;;;;;;;;;;17.10;99.90;;;;;;6177389;23;19974;-82
2021/06/09 21:13:29;;;;;;;;;;;17.10;99.90;;;;;;6161919;23;19921;-80
2021/06/09 21:15:55;;;;;;;;;;;17.10;99.90;;;;;;6161631;23;19921;-81
2021/06/09 21:18:23;;;;;;;;;;;17.00;99.90;;;;;;6175610;23;20245;-79
2021/06/09 21:20:53;;;;;;;;;;;17.00;99.90;;;;;;6160538;23;19924;-80
2021/06/09 21:23:19;;;;;;;;;;;17.00;99.90;;;;;;6164553;23;19966;-79
2021/06/09 21:25:52;;;;;;;;;;;17.00;99.90;;;;;;6164393;23;19920;-80
2021/06/09 21:28:19;;;;;;;;;;;17.00;99.90;;;;;;6165083;23;19969;-80
2021/06/09 21:30:46;;;;;;;;;;;17.00;99.90;;;;;;6177135;22;19921;-80
2021/06/09 21:33:13;;;;;;;;;;;17.00;99.90;;;;;;6177470;23;20286;-79
2021/06/09 21:35:40;;;;;;;;;;;17.00;99.90;;;;;;6180630;23;19920;-79
2021/06/09 21:38:06;;;;;;;;;;;16.90;99.90;;;;;;6178808;23;19920;-79
2021/06/09 21:40:33;;;;;;;;;;;16.90;99.90;;;;;;6179127;23;19946;-79
2021/06/09 21:43:00;;;;;;;;;;;16.90;99.90;;;;;;6179383;23;19920;-80
2021/06/09 21:45:27;;;;;;;;;;;16.90;99.90;;;;;;6180467;23;19920;-80
2021/06/09 21:47:54;;;;;;;;;;;16.90;99.90;;;;;;6178031;23;19921;-80
2021/06/09 21:50:22;;;;;;;;;;;16.80;99.90;;;;;;6177814;23;19920;-80
2021/06/09 21:52:50;;;;;;;;;;;16.80;99.90;;;;;;6176914;23;20005;-81
2021/06/09 21:55:17;;;;;;;;;;;16.80;99.90;;;;;;6177169;23;19970;-80
2021/06/09 21:57:44;;;;;;;;;;;16.80;99.90;;;;;;6178816;23;19920;-80
2021/06/09 22:00:13;;;;;;;;;;;16.80;99.90;;;;;;6176023;23;19927;-80
2021/06/09 22:02:40;;;;;;;;;;;16.80;99.90;;;;;;6177760;23;19920;-79
2021/06/09 22:05:08;;;;;;;;;;;16.70;99.90;;;;;;6178575;23;20253;-80